Terminal Aerodrome Forecast
Issued by NWS

Current Version | Previous Version | Graphics & Text | Print | Product List | Glossary On
Versions: 1 2 3 4 5 6 7 8 9 10 11 12 13 14 15 16 17 18 19 20
000
FTUS41 KRLX 221600 AAA
TAFCKB
TAF AMD
KCKB 221600Z 2216/2312 32007KT P6SM -SHSN OVC015
     FM222100 30004KT P6SM OVC020
     FM230100 00000KT P6SM OVC015=

USA.gov is the U.S. government's official web portal to all federal, state and local government web resources and services.